Time;durP1;ratioP1;P1;durP2;ratioP2;P2;SDS_P1;SDS_P2;PMS_P1;PMS_P2;Temp;Humidity;BMP_temperature;BMP_pressure;BME280_temperature;BME280_humidity;BME280_pressure;Samples;Min_cycle;Max_cycle;Signal;HPM_P1;HPM_P2
2022/06/15 00:01:52;;;;;;;4.60;2.97;;;;;;;14.92;89.50;99057.09;5114649;28;20392;-80
2022/06/15 00:04:20;;;;;;;4.82;2.28;;;;;;;14.93;89.05;99050.56;5113520;27;20048;-79
2022/06/15 00:06:47;;;;;;;3.35;2.33;;;;;;;14.86;89.34;99034.19;5114326;28;20044;-79
2022/06/15 00:09:13;;;;;;;4.72;2.70;;;;;;;15.07;88.65;99060.41;5113783;28;20479;-79
2022/06/15 00:11:42;;;;;;;2.85;2.35;;;;;;;14.95;88.78;99059.38;5114685;28;20064;-79
2022/06/15 00:14:11;;;;;;;4.65;2.42;;;;;;;14.95;88.76;99053.91;5114233;28;20134;-79
2022/06/15 00:16:38;;;;;;;3.78;2.80;;;;;;;14.83;88.91;99038.19;5114426;28;20055;-79
2022/06/15 00:19:05;;;;;;;7.25;2.83;;;;;;;14.72;89.15;99048.94;5112644;27;20376;-79
2022/06/15 00:21:33;;;;;;;5.22;2.78;;;;;;;14.66;90.14;99039.69;5114624;28;20047;-79
2022/06/15 00:24:00;;;;;;;7.18;2.67;;;;;;;14.75;89.08;99046.59;5114082;28;20051;-80
2022/06/15 00:26:27;;;;;;;4.28;2.67;;;;;;;14.64;90.21;99044.56;5114147;28;20043;-79
2022/06/15 00:28:54;;;;;;;5.30;2.17;;;;;;;14.64;89.35;99036.34;5114188;28;20062;-79
2022/06/15 00:31:21;;;;;;;5.95;2.60;;;;;;;14.82;87.05;99058.38;5113380;27;20490;-79
2022/06/15 00:33:47;;;;;;;4.00;2.55;;;;;;;14.87;87.78;99071.41;5113616;28;20039;-79
2022/06/15 00:36:16;;;;;;;5.00;2.65;;;;;;;14.85;88.64;99055.22;5113579;28;20044;-79
2022/06/15 00:38:45;;;;;;;7.05;3.08;;;;;;;14.89;89.30;99063.00;5113259;28;20043;-79
2022/06/15 00:41:14;;;;;;;3.63;2.47;;;;;;;14.71;91.46;99050.84;5114067;28;20044;-79
2022/06/15 00:43:44;;;;;;;4.60;2.90;;;;;;;14.56;93.13;99044.72;5113716;28;20380;-79
2022/06/15 00:46:16;;;;;;;5.60;3.28;;;;;;;14.40;95.16;99068.75;5112914;28;20509;-79
2022/06/15 00:48:44;;;;;;;4.53;2.63;;;;;;;14.26;95.15;99040.59;5114098;28;20047;-79
2022/06/15 00:51:11;;;;;;;7.93;3.22;;;;;;;14.33;95.11;99049.63;5114158;28;20097;-79
2022/06/15 00:53:38;;;;;;;6.50;2.70;;;;;;;14.20;95.13;99029.66;5113715;28;20051;-79
2022/06/15 00:56:09;;;;;;;5.97;2.58;;;;;;;14.00;96.46;99030.53;5114104;28;20047;-79
2022/06/15 00:58:37;;;;;;;4.55;2.92;;;;;;;14.09;97.68;99050.25;5114119;28;20039;-79
2022/06/15 01:01:04;;;;;;;6.43;2.92;;;;;;;13.90;99.42;99044.59;5112623;28;20156;-79
2022/06/15 01:03:31;;;;;;;3.65;2.83;;;;;;;13.81;100.00;99024.81;5113754;28;20048;-79
2022/06/15 01:06:09;;;;;;;6.03;3.30;;;;;;;13.71;99.95;99010.72;5113971;28;20043;-79
2022/06/15 01:08:42;;;;;;;4.70;3.00;;;;;;;13.81;98.80;99004.88;5113862;28;20055;-80
2022/06/15 01:11:32;;;;;;;4.03;2.40;;;;;;;14.02;97.10;99033.03;5114187;28;20060;-79
2022/06/15 01:14:19;;;;;;;5.10;3.10;;;;;;;14.15;96.80;99028.41;5113721;28;20048;-79
2022/06/15 01:16:53;;;;;;;7.60;2.75;;;;;;;14.23;96.03;99021.03;5093396;28;20130;-79
2022/06/15 01:19:46;;;;;;;6.80;3.30;;;;;;;14.35;96.31;99027.53;5093178;28;20442;-78
2022/06/15 01:22:31;;;;;;;6.88;3.17;;;;;;;14.40;95.79;99014.06;5093192;28;20445;-79
2022/06/15 01:25:19;;;;;;;6.20;3.10;;;;;;;14.29;96.30;99001.88;5093731;28;20044;-79
2022/06/15 01:28:05;;;;;;;4.80;3.47;;;;;;;14.25;97.86;99000.63;5093746;28;20365;-79
2022/06/15 01:30:41;;;;;;;4.63;2.78;;;;;;;13.99;99.12;98972.25;5093179;28;20055;-79
2022/06/15 01:33:16;;;;;;;5.18;3.10;;;;;;;14.01;99.55;99004.84;5093181;28;20074;-79
2022/06/15 01:35:53;;;;;;;3.38;2.70;;;;;;;14.06;94.84;99007.81;5113067;28;20044;-79
2022/06/15 01:38:29;;;;;;;4.60;3.00;;;;;;;14.12;87.68;99004.22;5112341;28;20067;-79
2022/06/15 01:41:05;;;;;;;7.07;2.90;;;;;;;14.21;84.71;98987.59;5113569;28;20058;-79
2022/06/15 01:43:36;;;;;;;5.78;2.63;;;;;;;14.44;82.18;98995.34;5113318;28;20051;-79
2022/06/15 01:46:05;;;;;;;5.55;2.33;;;;;;;14.38;84.05;98982.50;5113881;28;20059;-79
2022/06/15 01:48:33;;;;;;;4.95;2.53;;;;;;;14.47;84.22;98995.75;5113529;28;20043;-79
2022/06/15 01:51:08;;;;;;;7.40;2.80;;;;;;;14.46;84.68;99004.16;5113005;28;20395;-79
2022/06/15 01:53:38;;;;;;;5.72;2.55;;;;;;;14.36;84.89;98990.09;5112962;28;20479;-79
2022/06/15 01:56:10;;;;;;;10.15;3.72;;;;;;;14.34;83.83;98993.03;5113101;28;20044;-79
2022/06/15 01:58:40;;;;;;;8.75;2.47;;;;;;;14.37;82.13;98978.94;5112694;28;20058;-78
2022/06/15 02:01:13;;;;;;;7.80;2.30;;;;;;;14.34;82.43;98990.28;5112799;28;20642;-79
2022/06/15 02:03:47;;;;;;;8.73;2.78;;;;;;;14.42;83.52;98989.22;5112944;28;20075;-79
2022/06/15 02:06:22;;;;;;;2.97;2.30;;;;;;;14.36;83.59;98979.97;5112663;28;20483;-79
2022/06/15 02:08:58;;;;;;;5.97;2.65;;;;;;;14.38;87.89;98999.75;5113078;28;20044;-79
2022/06/15 02:11:31;;;;;;;7.85;3.38;;;;;;;14.37;90.38;98992.59;5113068;28;20066;-79
2022/06/15 02:14:02;;;;;;;4.50;2.95;;;;;;;14.35;91.30;99000.19;5113044;28;20066;-79
2022/06/15 02:16:33;;;;;;;7.00;2.90;;;;;;;14.32;92.53;99003.34;5112992;28;20054;-79
2022/06/15 02:19:03;;;;;;;5.53;2.67;;;;;;;14.14;91.73;98977.50;5111393;28;20554;-79
2022/06/15 02:21:29;;;;;;;5.10;2.50;;;;;;;14.06;90.16;98985.94;5113132;28;20055;-79
2022/06/15 02:24:00;;;;;;;7.65;2.88;;;;;;;13.79;91.88;99004.25;5112966;28;20083;-78
2022/06/15 02:26:31;;;;;;;5.05;2.42;;;;;;;13.70;92.61;98986.34;5113416;28;20052;-79
2022/06/15 02:29:02;;;;;;;5.93;3.00;;;;;;;13.64;93.84;98990.78;5113195;28;20403;-79
2022/06/15 02:31:30;;;;;;;10.52;3.08;;;;;;;13.57;95.32;98989.94;5114637;28;20056;-79
2022/06/15 02:33:57;;;;;;;6.50;3.22;;;;;;;13.61;95.09;98983.84;5116033;27;20074;-79
2022/06/15 02:36:24;;;;;;;5.00;3.13;;;;;;;13.67;94.72;98998.56;5116533;28;20048;-79
2022/06/15 02:38:51;;;;;;;5.78;3.25;;;;;;;13.64;95.48;99001.72;5116448;28;20434;-79
2022/06/15 02:41:20;;;;;;;3.97;2.90;;;;;;;13.71;95.92;98993.50;5116685;28;20047;-78
2022/06/15 02:43:48;;;;;;;5.22;3.00;;;;;;;13.74;96.04;99002.09;5116264;28;20085;-79
2022/06/15 02:46:18;;;;;;;11.90;3.38;;;;;;;13.57;97.12;98996.22;5115801;28;20054;-78
2022/06/15 02:48:46;;;;;;;5.55;3.33;;;;;;;13.59;97.74;98994.16;5116624;28;20040;-79
2022/06/15 02:51:19;;;;;;;5.97;3.22;;;;;;;13.59;98.19;99006.94;5116555;28;20059;-79
2022/06/15 02:53:48;;;;;;;5.82;3.08;;;;;;;13.48;99.22;99007.56;5116396;28;20062;-79
2022/06/15 02:56:15;;;;;;;6.95;3.08;;;;;;;13.38;100.00;98997.91;5115332;27;20040;-79
2022/06/15 02:58:44;;;;;;;6.80;2.92;;;;;;;13.16;100.00;99002.63;5116866;28;20058;-79
2022/06/15 03:01:11;;;;;;;7.78;2.83;;;;;;;13.03;100.00;99008.88;5116704;28;20051;-78
2022/06/15 03:03:39;;;;;;;4.60;2.83;;;;;;;12.83;100.00;99005.25;5114889;28;20054;-78
2022/06/15 03:06:10;;;;;;;3.60;2.63;;;;;;;12.78;100.00;99005.00;5116139;28;20055;-79
2022/06/15 03:08:36;;;;;;;4.35;3.15;;;;;;;12.70;100.00;99006.84;5115893;28;20047;-79
2022/06/15 03:11:02;;;;;;;3.67;2.70;;;;;;;12.73;100.00;99008.34;5116080;28;20043;-79
2022/06/15 03:13:29;;;;;;;4.68;3.10;;;;;;;12.67;100.00;98993.63;5115757;28;20059;-79
2022/06/15 03:15:57;;;;;;;7.00;3.50;;;;;;;12.85;100.00;99014.06;5116083;28;20055;-79
2022/06/15 03:18:24;;;;;;;7.22;3.38;;;;;;;12.75;100.00;99001.66;5114761;28;20043;-79
2022/06/15 03:20:50;;;;;;;6.07;3.20;;;;;;;12.63;100.00;98994.22;5116203;28;20051;-79
2022/06/15 03:23:18;;;;;;;5.50;3.22;;;;;;;12.33;100.00;98976.25;5115401;28;20050;-79
2022/06/15 03:25:45;;;;;;;8.02;3.33;;;;;;;12.52;100.00;98999.22;5115761;28;20039;-79
2022/06/15 03:28:11;;;;;;;7.13;3.20;;;;;;;12.52;100.00;98995.66;5115611;28;20043;-79
2022/06/15 03:30:38;;;;;;;7.00;2.97;;;;;;;12.66;100.00;99000.13;5115281;28;20059;-79
2022/06/15 03:33:05;;;;;;;9.35;2.95;;;;;;;12.69;100.00;98985.25;5114167;28;20048;-79
2022/06/15 03:35:35;;;;;;;6.25;3.55;;;;;;;12.66;100.00;98994.69;5115601;28;20050;-79
2022/06/15 03:38:02;;;;;;;7.43;3.53;;;;;;;12.35;100.00;98984.25;5115507;28;20494;-79
2022/06/15 03:40:31;;;;;;;6.50;3.30;;;;;;;12.47;100.00;98985.34;5114922;28;20043;-79
2022/06/15 03:42:57;;;;;;;6.18;3.10;;;;;;;12.44;100.00;98971.28;5115002;28;20054;-78
2022/06/15 03:45:24;;;;;;;6.03;3.10;;;;;;;12.52;100.00;98984.75;5115287;28;20495;-78
2022/06/15 03:47:50;;;;;;;5.03;2.80;;;;;;;12.34;100.00;98947.13;5114980;27;20402;-78
2022/06/15 03:50:17;;;;;;;4.78;2.70;;;;;;;12.49;100.00;98974.25;5115327;28;20047;-78
2022/06/15 03:52:44;;;;;;;4.15;2.55;;;;;;;12.35;100.00;98976.91;5114833;28;20512;-79
2022/06/15 03:55:11;;;;;;;4.93;2.95;;;;;;;12.50;100.00;98973.22;5115224;28;20483;-78
2022/06/15 03:57:39;;;;;;;6.45;3.35;;;;;;;12.65;100.00;98994.88;5115180;28;20105;-79
2022/06/15 04:00:07;;;;;;;5.72;3.33;;;;;;;12.77;100.00;98998.72;5113912;28;20074;-79
2022/06/15 04:02:34;;;;;;;8.48;3.40;;;;;;;12.60;100.00;98981.88;5113460;28;20054;-78
2022/06/15 04:05:00;;;;;;;8.23;3.83;;;;;;;12.92;100.00;98996.66;5114744;28;20052;-79
2022/06/15 04:10:13;;;;;;;6.00;3.70;;;;;;;12.89;100.00;98998.97;5114902;28;20477;-79
2022/06/15 04:12:42;;;;;;;4.80;3.17;;;;;;;13.01;100.00;99005.53;5114608;28;20051;-78
2022/06/15 04:15:11;;;;;;;7.45;4.05;;;;;;;12.83;100.00;98995.16;5113314;28;20055;-79
2022/06/15 04:17:37;;;;;;;7.55;3.70;;;;;;;12.87;100.00;99006.50;5114533;28;20039;-78
2022/06/15 04:22:48;;;;;;;13.27;4.53;;;;;;;13.05;100.00;99017.72;5114505;28;20058;-79
2022/06/15 04:25:15;;;;;;;4.75;3.30;;;;;;;13.03;100.00;98995.22;5114685;28;20052;-79
2022/06/15 04:27:43;;;;;;;4.95;3.42;;;;;;;13.21;100.00;99021.94;5114227;28;20055;-79
2022/06/15 04:30:12;;;;;;;6.38;3.72;;;;;;;13.18;100.00;99036.00;5113567;28;20048;-79
2022/06/15 04:32:39;;;;;;;5.10;3.35;;;;;;;13.33;100.00;99026.81;5114441;28;20052;-79
2022/06/15 04:35:06;;;;;;;5.65;3.53;;;;;;;13.15;100.00;99008.28;5114413;28;20043;-79
2022/06/15 04:37:33;;;;;;;6.97;3.63;;;;;;;13.23;100.00;99014.41;5114292;28;20047;-79
2022/06/15 04:39:59;;;;;;;7.72;3.70;;;;;;;13.21;100.00;99007.47;5113853;28;20050;-79
2022/06/15 04:42:26;;;;;;;4.90;3.53;;;;;;;13.21;100.00;99010.19;5105973;27;20048;-79
2022/06/15 04:44:54;;;;;;;7.07;3.83;;;;;;;13.35;100.00;99039.25;5093872;28;20502;-79
2022/06/15 04:47:21;;;;;;;6.20;3.78;;;;;;;13.39;100.00;99037.78;5093960;28;20062;-78
2022/06/15 04:49:47;;;;;;;7.32;3.47;;;;;;;13.41;100.00;99023.94;5093805;28;20055;-79
2022/06/15 04:52:14;;;;;;;9.65;4.10;;;;;;;13.52;100.00;99034.25;5109291;28;20415;-79
2022/06/15 04:54:42;;;;;;;6.78;4.03;;;;;;;13.67;100.00;99030.47;5093206;28;20052;-78
2022/06/15 04:57:08;;;;;;;7.65;3.85;;;;;;;14.08;100.00;99024.00;5100029;28;20047;-78
2022/06/15 04:59:35;;;;;;;6.85;3.90;;;;;;;15.01;93.08;99015.56;5114117;28;20048;-79
2022/06/15 05:02:04;;;;;;;4.75;3.10;;;;;;;15.91;85.43;99025.59;5115244;27;20039;-78
2022/06/15 05:04:30;;;;;;;3.65;3.10;;;;;;;16.79;80.83;99020.94;5114050;28;20078;-78
2022/06/15 05:06:57;;;;;;;5.75;4.53;;;;;;;17.34;78.37;99024.69;5114127;28;20040;-79
2022/06/15 05:09:23;;;;;;;4.28;3.15;;;;;;;17.94;73.78;99025.75;5112602;28;20058;-79
2022/06/15 05:11:49;;;;;;;6.68;2.90;;;;;;;18.36;72.88;99023.75;5113824;28;20058;-79
2022/06/15 05:14:16;;;;;;;6.03;2.80;;;;;;;18.66;68.54;99011.75;5112244;28;20475;-79
2022/06/15 05:16:43;;;;;;;5.22;2.95;;;;;;;18.86;68.01;99019.69;5113576;28;20075;-79
2022/06/15 05:19:11;;;;;;;5.80;3.08;;;;;;;19.18;67.32;99007.34;5113343;28;20044;-79
2022/06/15 05:21:39;;;;;;;6.78;3.00;;;;;;;19.52;65.85;99018.47;5113792;28;20117;-79
2022/06/15 05:24:06;;;;;;;3.28;2.78;;;;;;;19.60;65.30;99016.16;5113325;28;20051;-79
2022/06/15 05:26:33;;;;;;;5.47;2.85;;;;;;;19.68;63.75;99011.34;5113509;28;20047;-79
2022/06/15 05:28:59;;;;;;;4.78;2.70;;;;;;;20.01;62.93;99009.72;5112188;28;20043;-79
2022/06/15 05:31:26;;;;;;;4.28;2.55;;;;;;;19.74;62.51;99002.06;5113586;28;20054;-79
2022/06/15 05:33:55;;;;;;;6.97;2.72;;;;;;;19.98;61.95;98992.56;5113342;28;20055;-79
2022/06/15 05:36:26;;;;;;;3.63;2.55;;;;;;;20.24;61.27;98998.50;5113779;28;20052;-79
2022/06/15 05:38:52;;;;;;;6.22;3.00;;;;;;;20.39;60.55;99008.94;5112993;28;20099;-79
2022/06/15 05:41:19;;;;;;;5.10;2.42;;;;;;;20.47;61.14;98994.72;5112328;28;20055;-80
2022/06/15 05:43:46;;;;;;;4.40;2.65;;;;;;;20.58;60.59;99003.97;5111638;28;20048;-79
2022/06/15 05:46:15;;;;;;;4.68;2.65;;;;;;;20.44;60.86;98997.13;5113481;28;20205;-80
2022/06/15 05:48:41;;;;;;;5.38;2.80;;;;;;;20.57;60.54;98995.94;5113593;28;20415;-79
2022/06/15 05:51:08;;;;;;;5.22;2.90;;;;;;;21.08;59.34;99001.34;5113465;28;20039;-79
2022/06/15 05:53:36;;;;;;;6.20;3.20;;;;;;;21.12;58.18;99008.88;5113091;28;20662;-80
2022/06/15 05:56:02;;;;;;;5.38;2.90;;;;;;;21.28;58.75;98995.22;5113264;28;20101;-79
2022/06/15 05:58:29;;;;;;;9.15;3.08;;;;;;;21.74;58.15;98999.31;5112749;28;20035;-79
2022/06/15 06:00:55;;;;;;;7.43;3.03;;;;;;;21.90;57.16;99003.06;5113538;28;20086;-80
2022/06/15 06:03:22;;;;;;;4.85;2.97;;;;;;;21.72;56.64;98990.44;5113046;28;20536;-79
2022/06/15 06:05:48;;;;;;;5.85;2.75;;;;;;;21.78;55.94;98993.25;5111617;28;20047;-80
2022/06/15 06:08:15;;;;;;;7.70;2.38;;;;;;;22.13;54.88;98998.25;5117730;27;20044;-79
2022/06/15 06:10:43;;;;;;;8.50;3.15;;;;;;;22.30;55.50;99000.03;5116891;27;20050;-80
2022/06/15 06:13:09;;;;;;;4.93;2.35;;;;;;;22.56;54.51;98985.28;5117173;28;20124;-80
2022/06/15 06:15:36;;;;;;;6.32;2.70;;;;;;;23.14;52.52;98988.06;5117137;28;20517;-79
2022/06/15 06:18:03;;;;;;;4.50;2.80;;;;;;;22.80;53.79;98988.44;5117035;28;20048;-79
2022/06/15 06:20:29;;;;;;;9.63;3.05;;;;;;;23.20;53.58;98983.38;5116932;28;20051;-80
2022/06/15 06:22:55;;;;;;;6.15;2.83;;;;;;;23.77;52.88;98987.09;5116676;28;20047;-81
2022/06/15 06:25:22;;;;;;;5.68;2.67;;;;;;;23.86;51.48;98984.63;5115518;27;20052;-81
2022/06/15 06:27:50;;;;;;;4.22;2.42;;;;;;;23.76;51.05;98965.19;5117054;28;20043;-81
2022/06/15 06:30:21;;;;;;;3.53;2.40;;;;;;;24.19;50.97;98988.78;5116814;28;20043;-80
2022/06/15 06:32:47;;;;;;;4.90;2.10;;;;;;;24.44;48.65;98987.09;5116682;28;20051;-81
2022/06/15 06:35:14;;;;;;;3.67;2.55;;;;;;;24.87;49.41;98981.16;5116779;28;20053;-81
2022/06/15 06:37:43;;;;;;;5.43;2.30;;;;;;;24.78;47.30;98982.84;5114044;28;20066;-80
2022/06/15 06:40:13;;;;;;;4.43;2.40;;;;;;;24.70;44.59;98985.09;5115921;28;20066;-80
2022/06/15 06:42:40;;;;;;;5.82;2.55;;;;;;;24.68;45.25;98987.34;5116486;28;20498;-81
2022/06/15 06:45:10;;;;;;;5.07;2.50;;;;;;;24.26;44.82;98988.50;5116633;28;20047;-81
2022/06/15 06:47:37;;;;;;;11.32;2.53;;;;;;;24.45;45.14;98988.75;5116521;28;20048;-81
2022/06/15 06:50:06;;;;;;;6.10;2.28;;;;;;;24.78;45.82;98985.63;5116558;28;20055;-82
2022/06/15 06:52:32;;;;;;;7.65;2.25;;;;;;;24.45;44.58;98976.78;5115049;28;20414;-82
2022/06/15 06:54:59;;;;;;;6.05;2.58;;;;;;;24.59;43.47;98977.09;5116384;28;20075;-83
2022/06/15 06:57:26;;;;;;;5.03;2.20;;;;;;;24.83;44.25;98993.97;5116119;28;20493;-82
2022/06/15 06:59:52;;;;;;;6.38;2.83;;;;;;;24.89;44.04;98971.41;5116429;28;20058;-82
2022/06/15 07:02:20;;;;;;;4.50;2.30;;;;;;;25.12;43.46;98990.50;5116015;28;20052;-82
2022/06/15 07:04:47;;;;;;;7.60;2.72;;;;;;;25.12;43.72;98988.56;5116320;28;20062;-82
2022/06/15 07:07:13;;;;;;;10.23;2.65;;;;;;;25.31;44.08;98985.16;5114604;27;20048;-82
2022/06/15 07:09:40;;;;;;;11.93;2.58;;;;;;;25.17;42.27;98984.91;5115862;28;20051;-82
2022/06/15 07:12:07;;;;;;;8.15;2.85;;;;;;;25.19;43.91;98982.69;5114260;27;20056;-82
2022/06/15 07:14:34;;;;;;;24.92;4.03;;;;;;;25.43;44.05;98983.69;5116214;28;20051;-83
2022/06/15 07:17:00;;;;;;;12.57;3.05;;;;;;;25.71;42.72;98992.41;5115503;28;20090;-82
2022/06/15 07:19:28;;;;;;;15.68;2.53;;;;;;;25.60;42.83;98979.69;5115725;28;20043;-82
2022/06/15 07:21:55;;;;;;;8.93;2.35;;;;;;;25.82;43.06;98982.03;5115698;28;20044;-82
2022/06/15 07:24:22;;;;;;;9.57;2.65;;;;;;;26.48;42.52;98993.72;5114892;27;20043;-81
2022/06/15 07:26:48;;;;;;;11.57;2.85;;;;;;;26.14;41.33;98989.88;5115826;28;20094;-81
2022/06/15 07:29:18;;;;;;;10.85;2.60;;;;;;;26.43;40.78;98993.78;5111935;27;20047;-81
2022/06/15 07:31:48;;;;;;;16.70;2.88;;;;;;;26.11;41.06;98993.25;5115497;27;20059;-81
2022/06/15 07:34:15;;;;;;;7.75;2.85;;;;;;;26.25;40.79;98990.59;5115469;28;20051;-81
2022/06/15 07:36:46;;;;;;;6.25;2.67;;;;;;;26.81;39.67;99002.34;5115552;28;20059;-81
2022/06/15 07:39:14;;;;;;;12.88;2.90;;;;;;;26.65;39.78;98987.72;5114985;28;20383;-81
2022/06/15 07:41:41;;;;;;;7.55;2.42;;;;;;;27.04;39.43;99000.69;5113538;27;20093;-81
2022/06/15 07:44:08;;;;;;;11.80;2.58;;;;;;;26.92;40.40;98991.88;5114998;28;20414;-81
2022/06/15 07:46:34;;;;;;;11.73;2.70;;;;;;;27.19;39.40;98992.09;5115554;28;20047;-81
2022/06/15 07:51:51;;;;;;;11.45;2.40;;;;;;;26.96;39.47;98976.22;5115609;28;20666;-81
2022/06/15 07:54:19;;;;;;;7.25;2.58;;;;;;;26.77;41.39;99007.69;5114860;28;20051;-80
2022/06/15 07:56:46;;;;;;;11.35;2.80;;;;;;;26.52;40.13;98989.22;5114811;27;20044;-81
2022/06/15 07:59:14;;;;;;;7.18;3.17;;;;;;;26.81;41.70;98997.59;5115029;28;20047;-81
2022/06/15 08:01:41;;;;;;;11.15;2.90;;;;;;;26.73;40.43;98991.84;5115004;28;20052;-81
2022/06/15 08:04:08;;;;;;;10.43;3.38;;;;;;;26.83;42.41;98988.94;5114642;28;20494;-81
2022/06/15 08:06:37;;;;;;;6.88;2.40;;;;;;;27.07;39.69;99008.44;5114262;28;20044;-81
2022/06/15 08:09:17;;;;;;;6.15;2.53;;;;;;;26.96;39.43;98999.38;5113264;27;20052;-81
2022/06/15 08:12:11;;;;;;;6.45;2.03;;;;;;;26.92;39.90;99005.81;5114850;28;20051;-82
2022/06/15 08:14:32;;;;;;;8.43;2.38;;;;;;;27.03;40.04;99004.59;5114420;28;20128;-81
2022/06/15 08:17:01;;;;;;;9.70;2.28;;;;;;;26.76;38.84;98988.47;5114282;28;20055;-82
2022/06/15 08:19:29;;;;;;;5.95;2.15;;;;;;;26.87;40.27;99005.91;5114128;28;20055;-82
2022/06/15 08:21:55;;;;;;;4.60;2.42;;;;;;;26.98;38.41;99001.88;5114427;28;20078;-82
2022/06/15 08:24:24;;;;;;;5.90;2.50;;;;;;;27.06;37.38;98992.84;5113010;28;20043;-82
2022/06/15 08:26:51;;;;;;;3.65;2.05;;;;;;;27.37;39.74;98989.69;5112764;27;20147;-82
2022/06/15 08:29:19;;;;;;;6.03;1.90;;;;;;;27.39;37.12;98986.59;5113472;28;20506;-81
2022/06/15 08:31:46;;;;;;;3.65;2.42;;;;;;;27.52;35.94;98986.66;5114132;28;20518;-81
2022/06/15 08:34:12;;;;;;;10.32;2.30;;;;;;;26.82;37.40;99002.03;5114350;28;20054;-82
2022/06/15 08:36:39;;;;;;;5.95;2.20;;;;;;;26.61;37.43;99001.41;5114406;28;20062;-81
2022/06/15 08:39:07;;;;;;;4.80;2.15;;;;;;;27.12;37.02;98991.63;5112365;28;20043;-83
2022/06/15 08:41:50;;;;;;;5.47;2.05;;;;;;;27.17;36.95;98996.31;5114107;28;20517;-83
2022/06/15 08:44:26;;;;;;;3.72;2.00;;;;;;;27.19;35.60;98994.91;5114036;28;20055;-81
2022/06/15 08:47:02;;;;;;;6.18;2.13;;;;;;;27.45;34.29;98991.78;5114293;28;20044;-82
2022/06/15 08:49:40;;;;;;;6.13;2.65;;;;;;;27.31;36.41;98994.47;5114410;28;20063;-82
2022/06/15 08:52:14;;;;;;;8.63;2.85;;;;;;;27.36;36.32;98985.22;5113535;28;20097;-82
2022/06/15 08:54:44;;;;;;;8.80;2.70;;;;;;;26.87;36.65;98983.59;5113290;28;20070;-82
2022/06/15 08:57:18;;;;;;;8.27;2.30;;;;;;;27.28;39.14;98997.00;5114157;28;20051;-82
2022/06/15 08:59:49;;;;;;;3.92;2.08;;;;;;;27.29;37.88;98981.94;5114172;28;20039;-82
2022/06/15 09:02:25;;;;;;;5.10;1.90;;;;;;;27.43;37.81;98991.25;5113985;28;20051;-82
2022/06/15 09:04:58;;;;;;;6.18;2.30;;;;;;;27.48;38.82;98990.34;5114024;28;20410;-82
2022/06/15 09:07:37;;;;;;;5.85;2.00;;;;;;;27.32;37.26;98990.56;5113268;27;20043;-82
2022/06/15 09:10:19;;;;;;;8.07;2.30;;;;;;;27.50;35.65;98996.47;5113986;28;20058;-81
2022/06/15 09:13:00;;;;;;;11.52;2.40;;;;;;;27.58;36.52;98997.75;5113779;28;20055;-82
2022/06/15 09:15:43;;;;;;;4.90;2.25;;;;;;;27.69;35.83;98976.94;5114000;28;20047;-82
2022/06/15 09:18:16;;;;;;;6.38;2.00;;;;;;;27.80;36.26;98995.16;5113713;28;20104;-82
2022/06/15 09:20:46;;;;;;;6.10;1.90;;;;;;;27.97;38.93;98988.22;5113053;28;20136;-81
2022/06/15 09:23:18;;;;;;;11.40;2.63;;;;;;;27.83;36.50;98988.16;5112309;28;20126;-82
2022/06/15 09:25:51;;;;;;;11.48;2.08;;;;;;;27.95;35.62;98984.88;5113611;28;20044;-82
2022/06/15 09:28:27;;;;;;;4.78;2.28;;;;;;;28.13;37.06;98998.00;5113567;28;20044;-82
2022/06/15 09:30:59;;;;;;;6.90;1.88;;;;;;;27.80;35.42;99003.53;5113785;28;20063;-82
2022/06/15 09:33:32;;;;;;;4.30;1.88;;;;;;;28.10;34.92;98987.44;5113353;28;20055;-81
2022/06/15 09:36:06;;;;;;;4.22;2.10;;;;;;;28.36;37.04;98979.44;5112278;28;20134;-81
2022/06/15 09:38:34;;;;;;;5.07;1.73;;;;;;;27.86;34.10;98984.75;5112740;28;20376;-81
2022/06/15 09:41:04;;;;;;;5.13;1.92;;;;;;;28.17;34.25;98987.91;5114931;27;20052;-81
2022/06/15 09:43:39;;;;;;;;;;;;;;;28.07;35.07;98988.06;5117954;28;20548;-82
2022/06/15 09:46:13;;;;;;;6.70;2.10;;;;;;;28.53;35.27;98989.19;5117640;28;19919;-82
2022/06/15 09:48:59;;;;;;;6.53;1.95;;;;;;;28.40;34.39;98974.88;5117627;28;20516;-81
2022/06/15 09:51:34;;;;;;;4.70;2.30;;;;;;;28.39;34.56;98986.38;5117689;28;20044;-81
2022/06/15 09:54:10;;;;;;;6.25;2.65;;;;;;;28.36;33.40;98973.84;5117301;28;20063;-81
2022/06/15 09:56:37;;;;;;;4.60;1.98;;;;;;;28.55;33.61;98984.13;5116171;28;20130;-82
2022/06/15 09:59:09;;;;;;;6.97;2.10;;;;;;;28.39;35.20;98984.44;5117470;28;20051;-82
2022/06/15 10:01:39;;;;;;;3.85;2.13;;;;;;;28.46;33.40;98981.22;5117331;28;20134;-81
2022/06/15 10:04:07;;;;;;;4.95;2.08;;;;;;;28.10;34.24;98981.88;5117524;28;20395;-82
2022/06/15 10:06:43;;;;;;;5.07;2.13;;;;;;;28.25;34.44;98986.34;5117226;27;20051;-82
2022/06/15 10:09:14;;;;;;;4.65;2.03;;;;;;;28.84;33.21;98991.44;5113187;27;20187;-82
2022/06/15 10:11:45;;;;;;;7.47;1.98;;;;;;;28.85;33.42;98973.53;5115090;27;20518;-82
2022/06/15 10:14:21;;;;;;;7.35;1.90;;;;;;;28.90;34.36;98965.84;5117128;28;20078;-82
2022/06/15 10:16:53;;;;;;;6.22;1.73;;;;;;;29.12;33.65;98969.88;5119017;27;20050;-82
2022/06/15 10:19:21;;;;;;;5.47;1.88;;;;;;;29.18;36.19;98979.81;5116378;28;20085;-81
2022/06/15 10:21:53;;;;;;;2.65;1.70;;;;;;;29.59;33.30;98978.09;5117195;28;20047;-82
2022/06/15 10:24:24;;;;;;;4.05;1.80;;;;;;;29.69;34.32;98985.41;5116944;28;20047;-82
2022/06/15 10:26:54;;;;;;;6.35;2.20;;;;;;;29.58;32.81;98979.22;5116973;28;20494;-82
2022/06/15 10:29:27;;;;;;;2.97;1.98;;;;;;;29.14;31.96;98974.00;5116167;27;20565;-82
2022/06/15 10:32:01;;;;;;;5.88;1.88;;;;;;;29.81;31.30;98975.34;5116951;28;20054;-82
2022/06/15 10:34:30;;;;;;;7.22;1.63;;;;;;;29.76;31.06;98974.59;5116792;28;20659;-81
2022/06/15 10:37:00;;;;;;;2.57;1.53;;;;;;;29.78;31.52;98972.31;5116643;28;20075;-82
2022/06/15 10:39:29;;;;;;;2.95;1.55;;;;;;;29.66;29.99;98978.50;5115975;28;20044;-82
2022/06/15 10:42:01;;;;;;;8.18;2.05;;;;;;;29.91;30.17;98963.03;5116735;28;20052;-81
2022/06/15 10:44:32;;;;;;;4.28;1.58;;;;;;;29.87;31.50;98976.06;5116089;27;20062;-82
2022/06/15 10:47:02;;;;;;;3.10;1.73;;;;;;;29.64;30.78;98977.97;5115738;28;20112;-83
2022/06/15 10:49:31;;;;;;;;;;;;;;;29.65;32.22;98974.03;5117153;28;20047;-82
2022/06/15 10:51:58;;;;;;;5.57;1.60;;;;;;;29.73;29.09;98961.25;5115403;28;19920;-82
2022/06/15 10:54:33;;;;;;;4.88;2.60;;;;;;;29.88;29.99;98960.88;5116040;28;20056;-82
2022/06/15 11:03:17;;;;;;;4.65;1.65;;;;;;;30.30;30.00;98958.69;5115743;28;20059;-83
2022/06/15 11:05:45;;;;;;;6.88;2.10;;;;;;;29.86;32.41;98956.75;5116138;28;20561;-82
2022/06/15 11:08:16;;;;;;;4.50;1.80;;;;;;;30.03;30.93;98956.88;5116212;28;20135;-82
2022/06/15 11:10:45;;;;;;;6.50;2.00;;;;;;;29.95;31.47;98957.66;5114634;27;20090;-83
2022/06/15 11:13:31;;;;;;;5.65;2.00;;;;;;;30.10;31.33;98946.03;5115618;28;20047;-83
2022/06/15 11:19:03;;;;;;;2.47;1.60;;;;;;;30.48;28.74;98953.22;5116004;28;20124;-83
2022/06/15 11:21:32;;;;;;;;;;;;;;;30.46;29.70;98955.50;5116355;28;20048;-83
2022/06/15 11:24:05;;;;;;;2.20;1.40;;;;;;;30.13;28.90;98945.41;5113022;27;19924;-84
2022/06/15 11:26:55;;;;;;;10.40;1.85;;;;;;;30.40;29.44;98942.72;5116051;28;20054;-83
2022/06/15 11:29:31;;;;;;;;;;;;;;;30.91;29.86;98951.72;5115932;28;20059;-83
2022/06/15 11:32:06;;;;;;;4.85;2.00;;;;;;;31.19;28.63;98941.06;5115328;28;19919;-83
2022/06/15 11:34:37;;;;;;;3.38;1.95;;;;;;;30.88;27.49;98951.22;5115232;28;20047;-81
2022/06/15 11:37:07;;;;;;;5.78;1.70;;;;;;;30.99;28.76;98951.78;5115477;28;20090;-84
2022/06/15 11:39:40;;;;;;;6.07;1.85;;;;;;;30.64;28.58;98932.00;5113825;27;20130;-80
2022/06/15 11:42:09;;;;;;;3.08;1.60;;;;;;;30.97;29.88;98927.94;5115441;28;20052;-81
2022/06/15 11:44:40;;;;;;;4.15;1.77;;;;;;;31.06;30.28;98943.69;5115423;28;20142;-81
2022/06/15 11:47:21;;;;;;;6.38;1.95;;;;;;;31.22;29.56;98927.22;5115472;28;20134;-81
2022/06/15 11:50:00;;;;;;;6.65;1.80;;;;;;;31.35;29.96;98933.84;5115426;28;20047;-81
2022/06/15 11:52:50;;;;;;;4.65;1.90;;;;;;;30.89;29.02;98936.03;5113927;28;20494;-81
2022/06/15 11:55:25;;;;;;;6.30;1.90;;;;;;;31.34;28.73;98934.97;5115323;28;20039;-80
2022/06/15 11:58:12;;;;;;;6.43;1.63;;;;;;;31.66;28.21;98909.56;5115500;28;20048;-81
2022/06/15 12:00:48;;;;;;;4.00;1.88;;;;;;;31.62;28.91;98917.84;5115091;28;20074;-82
2022/06/15 12:03:40;;;;;;;2.00;1.55;;;;;;;31.72;29.19;98925.94;5115093;28;20102;-81